createdAt,value
2022-10-04T00:00:09.697Z,95411.06
2022-10-04T00:02:38.777Z,95385.22
2022-10-04T00:05:14.081Z,95421.22
2022-10-04T00:07:49.135Z,95429.53
2022-10-04T00:10:22.507Z,95428.81
2022-10-04T00:12:53.340Z,95430.44
2022-10-04T00:15:26.314Z,95341.63
2022-10-04T00:18:09.517Z,95426.81
2022-10-04T00:21:07.845Z,95427.38
2022-10-04T00:23:45.075Z,95429.66
2022-10-04T00:26:31.880Z,95432.22
2022-10-04T00:29:00.141Z,95432.00
2022-10-04T00:31:29.319Z,95427.16
2022-10-04T00:34:39.252Z,95427.72
2022-10-04T00:37:16.984Z,95429.44
2022-10-04T00:39:47.848Z,95434.44
2022-10-04T00:42:41.824Z,95435.22
2022-10-04T00:45:25.118Z,95423.84
2022-10-04T00:48:40.500Z,95418.31
2022-10-04T00:51:20.511Z,95417.03
2022-10-04T00:54:07.964Z,95426.00
2022-10-04T00:56:42.300Z,95429.56
2022-10-04T00:59:34.768Z,95425.56
2022-10-04T01:02:07.149Z,95437.63
2022-10-04T01:04:42.518Z,95437.34
2022-10-04T01:07:14.205Z,95444.44
2022-10-04T01:09:51.100Z,95448.22
2022-10-04T01:12:39.984Z,95454.50
2022-10-04T01:15:14.231Z,95458.28
2022-10-04T01:17:42.494Z,95463.09
2022-10-04T01:20:34.552Z,95462.28
2022-10-04T01:23:05.541Z,95465.63
2022-10-04T01:25:54.527Z,95459.38
2022-10-04T01:28:22.980Z,95466.94
2022-10-04T01:30:51.277Z,95456.94
2022-10-04T01:33:19.688Z,95457.50
2022-10-04T01:35:48.336Z,95453.53
2022-10-04T01:38:18.083Z,95463.56
2022-10-04T01:40:51.232Z,95471.69
2022-10-04T01:43:24.981Z,95455.97
2022-10-04T01:45:58.761Z,95467.97
2022-10-04T01:48:34.084Z,95453.69
2022-10-04T01:51:07.539Z,95471.16
2022-10-04T01:53:44.323Z,95465.28
2022-10-04T01:56:18.503Z,95471.66
2022-10-04T01:58:50.464Z,95466.59
2022-10-04T02:01:26.687Z,95471.13
2022-10-04T02:04:01.041Z,95475.28
2022-10-04T02:06:36.233Z,95478.38
2022-10-04T02:09:10.480Z,95483.19
2022-10-04T02:11:41.551Z,95483.63
2022-10-04T02:14:16.967Z,95406.78
2022-10-04T02:16:47.806Z,95487.78
2022-10-04T02:19:17.532Z,95487.34
2022-10-04T02:21:46.633Z,95485.91
2022-10-04T02:24:17.758Z,95487.19
2022-10-04T02:26:51.286Z,95490.84
2022-10-04T02:29:20.515Z,95482.28
2022-10-04T02:32:07.999Z,95444.91
2022-10-04T02:34:36.965Z,95465.00
2022-10-04T02:37:06.559Z,95485.13
2022-10-04T02:39:42.092Z,95488.41
2022-10-04T02:42:15.565Z,95486.13
2022-10-04T02:44:47.253Z,95482.41
2022-10-04T02:47:19.725Z,95493.00
2022-10-04T02:49:50.679Z,95491.72
2022-10-04T02:52:25.837Z,95487.41
2022-10-04T02:55:02.863Z,95493.25
2022-10-04T02:57:33.922Z,95492.34
2022-10-04T03:00:18.816Z,95484.06
2022-10-04T03:03:16.120Z,95485.22
2022-10-04T03:05:47.901Z,95481.38
2022-10-04T03:08:16.253Z,95492.25
2022-10-04T03:10:46.992Z,95497.00
2022-10-04T03:13:16.301Z,95507.84
2022-10-04T03:15:44.996Z,95513.47
2022-10-04T03:18:13.247Z,95491.66
2022-10-04T03:20:42.489Z,95505.13
2022-10-04T03:23:12.934Z,95512.31
2022-10-04T03:25:49.598Z,95506.91
2022-10-04T03:28:19.389Z,95523.75
2022-10-04T03:30:49.414Z,95523.69
2022-10-04T03:33:28.958Z,95521.44
2022-10-04T03:36:00.674Z,95529.38
2022-10-04T03:38:30.176Z,95523.91
2022-10-04T03:41:03.089Z,95500.66
2022-10-04T03:43:34.682Z,95450.53
2022-10-04T03:46:05.500Z,95519.31
2022-10-04T03:48:39.042Z,95516.44
2022-10-04T03:51:13.502Z,95522.94
2022-10-04T03:53:44.923Z,95522.19
2022-10-04T03:56:18.849Z,95523.31
2022-10-04T03:58:48.610Z,95530.53
2022-10-04T04:01:28.876Z,95527.53
2022-10-04T04:04:04.596Z,95533.34
2022-10-04T04:06:43.270Z,95529.09
2022-10-04T04:09:21.582Z,95530.31
2022-10-04T04:11:54.302Z,95545.28
2022-10-04T04:14:26.123Z,95545.44
2022-10-04T04:16:56.225Z,95548.16
2022-10-04T04:19:27.070Z,95482.03
2022-10-04T04:21:57.389Z,95560.59
2022-10-04T04:24:32.332Z,95536.84
2022-10-04T04:27:05.419Z,95556.50
2022-10-04T04:29:43.777Z,95566.28
2022-10-04T04:32:18.794Z,95566.78
2022-10-04T04:34:53.036Z,95569.72
2022-10-04T04:37:22.107Z,95564.66
2022-10-04T04:39:55.393Z,95567.63
2022-10-04T04:42:31.828Z,95563.44
2022-10-04T04:45:03.066Z,95567.47
2022-10-04T04:47:34.439Z,95574.66
2022-10-04T04:50:07.853Z,95571.22
2022-10-04T04:52:37.284Z,95574.88
2022-10-04T04:55:06.906Z,95584.50
2022-10-04T04:57:36.637Z,95581.31
2022-10-04T05:00:05.475Z,95581.88
2022-10-04T05:02:35.928Z,95580.25
2022-10-04T05:05:24.749Z,95576.00
2022-10-04T05:08:10.638Z,95607.66
2022-10-04T05:10:42.136Z,95604.88
2022-10-04T05:13:12.720Z,95598.53
2022-10-04T05:15:43.100Z,95585.31
2022-10-04T05:18:22.902Z,95600.16
2022-10-04T05:20:55.500Z,95616.50
2022-10-04T05:23:24.184Z,95609.81
2022-10-04T05:25:53.435Z,95595.91
2022-10-04T05:28:23.196Z,95608.63
2022-10-04T05:31:10.963Z,95608.94
2022-10-04T05:33:46.244Z,95607.88
2022-10-04T05:36:51.908Z,95547.94
2022-10-04T05:39:27.903Z,95535.47
2022-10-04T05:42:02.677Z,95592.47
2022-10-04T05:44:36.980Z,95594.03
2022-10-04T05:47:09.435Z,95562.78
2022-10-04T05:49:44.775Z,95597.75
2022-10-04T05:52:18.224Z,95592.47
2022-10-04T05:54:46.713Z,95590.34
2022-10-04T05:57:39.909Z,95327.66
2022-10-04T06:00:19.000Z,95590.59
2022-10-04T06:03:10.850Z,95600.41
2022-10-04T06:05:50.249Z,95434.22
2022-10-04T06:08:27.846Z,95602.56
2022-10-04T06:11:14.311Z,95597.56
2022-10-04T06:14:20.655Z,95586.44
2022-10-04T06:17:15.209Z,95560.13
2022-10-04T06:20:30.697Z,95581.66
2022-10-04T06:23:02.169Z,95586.13
2022-10-04T06:25:35.080Z,95596.44
2022-10-04T06:28:15.776Z,95593.28
2022-10-04T06:30:56.785Z,95599.78
2022-10-04T06:33:53.607Z,95602.53
2022-10-04T06:36:37.193Z,95608.66
2022-10-04T06:39:30.340Z,95601.16
2022-10-04T06:42:34.290Z,95618.88
2022-10-04T06:45:24.388Z,95618.63
2022-10-04T06:48:19.297Z,95611.22
2022-10-04T06:50:52.700Z,95592.41
2022-10-04T06:53:27.848Z,95605.03
2022-10-04T06:56:10.736Z,95604.44
2022-10-04T06:58:59.707Z,95596.09
2022-10-04T07:01:31.137Z,95591.72
2022-10-04T07:04:07.139Z,95600.56
2022-10-04T07:06:43.538Z,95598.53
2022-10-04T07:09:20.955Z,95605.25
2022-10-04T07:11:54.659Z,95597.53
2022-10-04T07:14:31.097Z,95539.44
2022-10-04T07:17:05.361Z,95600.94
2022-10-04T07:19:38.189Z,95607.91
2022-10-04T07:22:18.487Z,95587.97
2022-10-04T07:25:15.817Z,95585.25
2022-10-04T07:28:15.094Z,95582.03
2022-10-04T07:30:47.346Z,95571.81
2022-10-04T07:33:19.980Z,95602.25
2022-10-04T07:35:52.047Z,95604.66
2022-10-04T07:38:28.235Z,95560.84
2022-10-04T07:41:12.031Z,95590.06
2022-10-04T07:43:49.554Z,95589.50
2022-10-04T07:46:25.417Z,95597.44
2022-10-04T07:48:54.464Z,95575.88
2022-10-04T07:51:34.205Z,95605.03
2022-10-04T07:54:12.529Z,95453.41
2022-10-04T07:56:48.676Z,95582.38
2022-10-04T07:59:35.065Z,95582.75
2022-10-04T08:02:28.932Z,95539.03
2022-10-04T08:05:13.088Z,95585.88
2022-10-04T08:07:54.844Z,95583.97
2022-10-04T08:10:31.376Z,95575.59
2022-10-04T08:13:13.429Z,95565.84
2022-10-04T08:15:44.220Z,95574.50
2022-10-04T08:18:23.386Z,95568.94
2022-10-04T08:20:58.280Z,95569.13
2022-10-04T08:23:54.379Z,95561.94
2022-10-04T08:26:41.937Z,95561.94
2022-10-04T08:29:47.408Z,95562.56
2022-10-04T08:32:31.079Z,95569.50
2022-10-04T08:35:28.890Z,95568.09
2022-10-04T08:38:14.831Z,95561.81
2022-10-04T08:41:20.692Z,95560.47
2022-10-04T08:44:36.166Z,95559.25
2022-10-04T08:47:50.468Z,95546.00
2022-10-04T08:51:07.717Z,95552.22
2022-10-04T08:54:20.564Z,95415.00
2022-10-04T08:57:08.616Z,95527.19
2022-10-04T09:00:05.915Z,95546.34
2022-10-04T09:03:00.151Z,95551.59
2022-10-04T09:05:53.552Z,95547.50
2022-10-04T09:08:58.861Z,95545.63
2022-10-04T09:11:47.312Z,95547.19
2022-10-04T09:14:51.294Z,95538.72
2022-10-04T09:17:24.372Z,95541.34
2022-10-04T09:20:14.021Z,95546.72
2022-10-04T09:22:50.066Z,95544.81
2022-10-04T09:25:48.879Z,95535.34
2022-10-04T09:28:43.887Z,95541.00
2022-10-04T09:31:34.102Z,95533.91
2022-10-04T09:34:14.287Z,95536.34
2022-10-04T09:37:14.867Z,95549.81
2022-10-04T09:40:22.101Z,95541.06
2022-10-04T09:43:14.349Z,95535.91
2022-10-04T09:46:12.181Z,95542.75
2022-10-04T09:48:46.740Z,95489.94
2022-10-04T09:51:42.851Z,95525.47
2022-10-04T09:54:41.075Z,95523.69
2022-10-04T09:57:29.196Z,95531.34
2022-10-04T10:00:14.592Z,95545.31
2022-10-04T10:03:14.917Z,95532.69
2022-10-04T10:06:06.889Z,95508.84
2022-10-04T10:08:43.215Z,95520.28
2022-10-04T10:11:39.567Z,95489.09
2022-10-04T10:14:46.852Z,95513.78
2022-10-04T10:17:25.988Z,95000.94
2022-10-04T10:20:36.481Z,95517.41
2022-10-04T10:23:44.180Z,95509.78
2022-10-04T10:26:39.368Z,95518.38
2022-10-04T10:29:32.739Z,95515.53
2022-10-04T10:32:17.084Z,95522.69
2022-10-04T10:35:26.298Z,95524.75
2022-10-04T10:38:11.961Z,95515.16
2022-10-04T10:40:53.820Z,95521.41
2022-10-04T10:43:46.725Z,95526.59
2022-10-04T10:46:28.664Z,95528.88
2022-10-04T10:49:33.569Z,95525.97
2022-10-04T10:52:34.261Z,95525.63
2022-10-04T10:55:30.388Z,95528.31
2022-10-04T10:58:22.808Z,95523.13
2022-10-04T11:01:01.256Z,95526.38
2022-10-04T11:03:57.511Z,95523.69
2022-10-04T11:06:54.677Z,95518.41
2022-10-04T11:09:41.888Z,95515.13
2022-10-04T11:12:42.407Z,95511.28
2022-10-04T11:15:49.605Z,95493.31
2022-10-04T11:18:48.079Z,95518.91
2022-10-04T11:21:50.685Z,95517.06
2022-10-04T11:25:03.332Z,95510.81
2022-10-04T11:27:49.199Z,95518.69
2022-10-04T11:30:25.253Z,95508.09
2022-10-04T11:33:26.754Z,95521.44
2022-10-04T11:36:23.744Z,95520.06
2022-10-04T11:39:23.204Z,95515.56
2022-10-04T11:41:57.640Z,95504.97
2022-10-04T11:44:41.314Z,95504.25
2022-10-04T11:47:24.229Z,95503.38
2022-10-04T11:50:12.405Z,95503.28
2022-10-04T11:53:15.791Z,95501.53
2022-10-04T11:56:04.607Z,95510.03
2022-10-04T11:58:50.573Z,95494.63
2022-10-04T12:01:47.829Z,95499.97
2022-10-04T12:04:54.357Z,95500.72
2022-10-04T12:07:46.395Z,95484.31
2022-10-04T12:10:25.445Z,95483.81
2022-10-04T12:13:26.023Z,95493.78
2022-10-04T12:16:17.219Z,95489.75
2022-10-04T12:19:30.337Z,95499.19
2022-10-04T12:22:27.118Z,95500.41
2022-10-04T12:25:30.845Z,95496.97
2022-10-04T12:28:40.407Z,95490.00
2022-10-04T12:31:25.007Z,95513.31
2022-10-04T12:34:00.055Z,95500.84
2022-10-04T12:36:42.656Z,95507.84
2022-10-04T12:39:28.558Z,95510.34
2022-10-04T12:42:09.254Z,95492.53
2022-10-04T12:44:49.151Z,95500.31
2022-10-04T12:47:57.598Z,95496.16
2022-10-04T12:50:44.040Z,95492.84
2022-10-04T12:53:22.823Z,95493.41
2022-10-04T12:56:06.973Z,95497.94
2022-10-04T12:58:47.250Z,95495.31
2022-10-04T13:01:28.299Z,95496.34
2022-10-04T13:04:20.310Z,95473.44
2022-10-04T13:07:00.806Z,95503.47
2022-10-04T13:09:55.115Z,95508.19
2022-10-04T13:12:39.116Z,95511.47
2022-10-04T13:15:26.181Z,95501.25
2022-10-04T13:18:06.938Z,95511.84
2022-10-04T13:20:53.157Z,95473.91
2022-10-04T13:23:36.461Z,95518.38
2022-10-04T13:26:29.232Z,95505.88
2022-10-04T13:29:05.133Z,95503.41
2022-10-04T13:31:39.677Z,95509.38
2022-10-04T13:34:21.556Z,95509.63
2022-10-04T13:37:07.197Z,95502.47
2022-10-04T13:39:59.916Z,95510.72
2022-10-04T13:42:43.163Z,95514.06
2022-10-04T13:45:24.596Z,95516.75
2022-10-04T13:48:18.177Z,95519.72
2022-10-04T13:51:05.008Z,95374.03
2022-10-04T13:54:02.482Z,95530.84
2022-10-04T13:56:52.604Z,95527.63
2022-10-04T13:59:34.446Z,95546.75
2022-10-04T14:02:48.318Z,95529.66
2022-10-04T14:05:44.163Z,95537.69
2022-10-04T14:09:01.235Z,95538.31
2022-10-04T14:11:51.493Z,95549.59
2022-10-04T14:15:04.649Z,95555.88
2022-10-04T14:18:01.279Z,95552.00
2022-10-04T14:21:18.949Z,95558.06
2022-10-04T14:24:21.100Z,95554.72
2022-10-04T14:27:09.343Z,95552.66
2022-10-04T14:30:06.333Z,95556.09
2022-10-04T14:33:13.290Z,95566.53
2022-10-04T14:35:51.151Z,95557.84
2022-10-04T14:38:46.336Z,95559.69
2022-10-04T14:41:48.280Z,95566.47
2022-10-04T14:44:46.181Z,95574.06
2022-10-04T14:47:42.900Z,95571.56
2022-10-04T14:50:28.144Z,95582.78
2022-10-04T14:53:08.738Z,95545.09
2022-10-04T14:56:00.288Z,95569.00
2022-10-04T14:58:36.564Z,95599.00
2022-10-04T15:01:20.726Z,95566.59
2022-10-04T15:04:16.629Z,95606.00
2022-10-04T15:06:49.985Z,95591.66
2022-10-04T15:09:44.026Z,95615.00
2022-10-04T15:15:55.619Z,95562.28
2022-10-04T15:18:34.805Z,95630.25
2022-10-04T15:21:12.841Z,95623.88
2022-10-04T15:23:47.592Z,95643.97
2022-10-04T15:26:51.152Z,95644.03
2022-10-04T15:29:26.979Z,95650.56
2022-10-04T15:32:07.443Z,95642.75
2022-10-04T15:34:45.750Z,95654.31
2022-10-04T15:37:28.016Z,95593.06
2022-10-04T15:40:24.914Z,95596.84
2022-10-04T15:43:17.333Z,95664.84
2022-10-04T15:46:25.207Z,95673.53
2022-10-04T15:49:08.617Z,95663.72
2022-10-04T15:52:03.562Z,95665.53
2022-10-04T15:54:52.311Z,95676.31
2022-10-04T15:57:31.603Z,95678.16
2022-10-04T16:00:08.497Z,95669.31
2022-10-04T16:02:53.910Z,95683.91
2022-10-04T16:05:28.326Z,95684.34
2022-10-04T16:08:20.751Z,95692.06
2022-10-04T16:11:07.179Z,95694.00
2022-10-04T16:14:00.183Z,95699.75
2022-10-04T16:17:00.127Z,95700.97
2022-10-04T16:19:48.099Z,95692.97
2022-10-04T16:22:22.655Z,95705.59
2022-10-04T16:24:54.632Z,95701.97
2022-10-04T16:27:49.360Z,95716.06
2022-10-04T16:30:28.144Z,95713.66
2022-10-04T16:33:37.250Z,95703.75
2022-10-04T16:36:36.306Z,95724.56
2022-10-04T16:39:22.942Z,95735.00
2022-10-04T16:42:01.171Z,95692.75
2022-10-04T16:44:36.728Z,95738.50
2022-10-04T16:47:23.013Z,95728.16
2022-10-04T16:49:55.112Z,95745.69
2022-10-04T16:52:51.170Z,95757.31
2022-10-04T16:55:52.352Z,95762.72
2022-10-04T16:58:56.158Z,95768.13
2022-10-04T17:01:54.268Z,95785.91
2022-10-04T17:04:55.773Z,95784.88
2022-10-04T17:07:35.099Z,95793.25
2022-10-04T17:10:19.105Z,95796.38
2022-10-04T17:12:56.045Z,95795.41
2022-10-04T17:15:51.064Z,95801.75
2022-10-04T17:18:28.144Z,95804.97
2022-10-04T17:21:04.256Z,95739.50
2022-10-04T17:23:54.872Z,95798.91
2022-10-04T17:26:39.578Z,95800.59
2022-10-04T17:29:24.358Z,95696.31
2022-10-04T17:32:01.338Z,95649.16
2022-10-04T17:34:43.894Z,95709.38
2022-10-04T17:37:26.582Z,95583.63
2022-10-04T17:40:10.331Z,95836.72
2022-10-04T17:42:46.329Z,95834.94
2022-10-04T17:45:25.180Z,95706.13
2022-10-04T17:48:20.388Z,95848.44
2022-10-04T17:51:16.111Z,95806.16
2022-10-04T17:54:09.832Z,95848.91
2022-10-04T17:56:44.199Z,95857.47
2022-10-04T17:59:18.284Z,95863.50
2022-10-04T18:01:51.478Z,95816.25
2022-10-04T18:04:23.665Z,95867.81
2022-10-04T18:06:58.460Z,95876.78
2022-10-04T18:09:33.717Z,95877.00
2022-10-04T18:12:06.337Z,95881.97
2022-10-04T18:14:52.548Z,95891.16
2022-10-04T18:17:31.045Z,95886.53
2022-10-04T18:20:18.027Z,95886.81
2022-10-04T18:22:48.911Z,95891.34
2022-10-04T18:25:23.436Z,95891.38
2022-10-04T18:27:55.047Z,95903.72
2022-10-04T18:30:24.351Z,95905.75
2022-10-04T18:32:55.383Z,95907.31
2022-10-04T18:35:27.834Z,95893.47
2022-10-04T18:37:59.645Z,95906.72
2022-10-04T18:40:34.766Z,95870.81
2022-10-04T18:43:03.276Z,95834.38
2022-10-04T18:45:33.879Z,95918.28
2022-10-04T18:48:03.931Z,95860.72
2022-10-04T18:50:36.015Z,95926.16
2022-10-04T18:53:32.961Z,95931.63
2022-10-04T18:56:06.569Z,95930.06
2022-10-04T18:59:17.448Z,95935.75
2022-10-04T19:02:03.441Z,95938.31
2022-10-04T19:05:02.266Z,95944.13
2022-10-04T19:07:40.337Z,95945.88
2022-10-04T19:10:17.466Z,95947.75
2022-10-04T19:12:54.100Z,95956.53
2022-10-04T19:15:44.809Z,95952.28
2022-10-04T19:18:36.963Z,95943.63
2022-10-04T19:21:17.548Z,95967.16
2022-10-04T19:24:02.693Z,95964.66
2022-10-04T19:26:37.290Z,95955.44
2022-10-04T19:29:17.808Z,95960.94
2022-10-04T19:31:55.257Z,95970.38
2022-10-04T19:34:34.480Z,95973.28
2022-10-04T19:37:10.273Z,95978.81
2022-10-04T19:39:51.726Z,95983.91
2022-10-04T19:42:29.780Z,95911.13
2022-10-04T19:45:16.808Z,95914.00
2022-10-04T19:47:50.631Z,95989.31
2022-10-04T19:50:25.800Z,95988.97
2022-10-04T19:52:58.885Z,95995.69
2022-10-04T19:55:42.395Z,95991.72
2022-10-04T19:58:32.044Z,95998.16
2022-10-04T20:01:01.887Z,95999.56
2022-10-04T20:03:30.324Z,96005.16
2022-10-04T20:05:58.753Z,96010.25
2022-10-04T20:09:01.841Z,96008.88
2022-10-04T20:11:49.740Z,96008.09
2022-10-04T20:14:54.673Z,96012.94
2022-10-04T20:17:42.552Z,96026.59
2022-10-04T20:20:15.500Z,96027.69
2022-10-04T20:22:58.099Z,96028.88
2022-10-04T20:26:00.953Z,96025.72
2022-10-04T20:28:43.579Z,96029.38
2022-10-04T20:31:28.152Z,96030.53
2022-10-04T20:34:34.393Z,96033.41
2022-10-04T20:37:02.926Z,96032.34
2022-10-04T20:40:01.212Z,96046.28
2022-10-04T20:42:37.628Z,96047.69
2022-10-04T20:45:28.028Z,96062.25
2022-10-04T20:47:58.375Z,96063.19
2022-10-04T20:50:32.888Z,96052.63
2022-10-04T20:53:04.277Z,96055.28
2022-10-04T20:55:34.924Z,96068.34
2022-10-04T20:58:05.451Z,96073.91
2022-10-04T21:00:35.752Z,96073.03
2022-10-04T21:03:16.339Z,96077.31
2022-10-04T21:05:52.512Z,96073.47
2022-10-04T21:08:26.008Z,96076.56
2022-10-04T21:11:19.469Z,96077.97
2022-10-04T21:13:59.025Z,96076.00
2022-10-04T21:16:41.602Z,96059.47
2022-10-04T21:19:49.190Z,96072.41
2022-10-04T21:22:38.020Z,96071.88
2022-10-04T21:25:41.215Z,96082.78
2022-10-04T21:28:35.121Z,96079.28
2022-10-04T21:31:04.848Z,96079.25
2022-10-04T21:33:34.477Z,96083.09
2022-10-04T21:36:03.050Z,96080.66
2022-10-04T21:38:33.222Z,96088.41
2022-10-04T21:41:01.582Z,96088.09
2022-10-04T21:43:30.152Z,96091.44
2022-10-04T21:45:58.440Z,96090.59
2022-10-04T21:48:27.556Z,96088.34
2022-10-04T21:50:56.572Z,96076.84
2022-10-04T21:53:24.845Z,96079.91
2022-10-04T21:55:54.472Z,96068.09
2022-10-04T21:58:23.019Z,96081.63
2022-10-04T22:00:51.422Z,96081.84
2022-10-04T22:03:19.730Z,96086.53
2022-10-04T22:05:47.927Z,96079.38
2022-10-04T22:08:16.240Z,96088.41
2022-10-04T22:10:45.711Z,96094.78
2022-10-04T22:13:15.498Z,96081.72
2022-10-04T22:15:43.677Z,96097.16
2022-10-04T22:18:11.994Z,96094.88
2022-10-04T22:20:40.341Z,96100.47
2022-10-04T22:23:16.144Z,96095.41
2022-10-04T22:25:44.420Z,96104.19
2022-10-04T22:28:20.548Z,96098.13
2022-10-04T22:30:49.721Z,96103.94
2022-10-04T22:33:29.331Z,96080.09
2022-10-04T22:35:59.244Z,96106.75
2022-10-04T22:38:27.484Z,96113.88
2022-10-04T22:40:55.768Z,96114.28
2022-10-04T22:43:25.485Z,96118.72
2022-10-04T22:45:55.735Z,96109.97
2022-10-04T22:48:26.768Z,96118.59
2022-10-04T22:50:55.073Z,96118.81
2022-10-04T22:53:24.597Z,96116.06
2022-10-04T22:55:56.002Z,96082.84
2022-10-04T22:58:25.641Z,96124.75
2022-10-04T23:00:56.220Z,96127.44
2022-10-04T23:03:31.423Z,96132.25
2022-10-04T23:06:00.374Z,96125.91
2022-10-04T23:08:29.567Z,96134.19
2022-10-04T23:10:59.668Z,96134.59
2022-10-04T23:13:29.349Z,96135.31
2022-10-04T23:16:00.566Z,96133.56
2022-10-04T23:18:30.458Z,96085.88
2022-10-04T23:21:01.275Z,96139.81
2022-10-04T23:23:31.813Z,96145.31
2022-10-04T23:26:00.094Z,96151.16
2022-10-04T23:28:30.096Z,96149.25
2022-10-04T23:31:03.988Z,96142.56
2022-10-04T23:33:32.272Z,96159.66
2022-10-04T23:36:00.476Z,96152.25
2022-10-04T23:38:30.597Z,96157.25
2022-10-04T23:40:59.256Z,96161.06
2022-10-04T23:43:29.220Z,96147.41
2022-10-04T23:45:59.530Z,96160.47
2022-10-04T23:48:29.235Z,96139.00
2022-10-04T23:51:00.139Z,96165.06
2022-10-04T23:53:30.745Z,96177.53
2022-10-04T23:56:00.558Z,96171.13
2022-10-04T23:58:36.104Z,96172.00
